AirNav   Air Wisconsin pilot careers
 
 1467 users online  

MY72 Isle Private Airport
Isle, Minnesota, USA

GOING TO ISLE?


FAA INFORMATION EFFECTIVE 06 DECEMBER 2018

Location

FAA Identifier: MY72
Lat/Long: 46-09-34.8370N / 093-27-40.8510W
46-09.580617N / 093-27.680850W
46.1596769 / -93.4613475
(estimated)
Elevation: 1271 ft. / 387 m (estimated)
Variation: 03E (1985)
From city: 2 miles NE of ISLE, MN
Time zone: UTC -6 (UTC -5 during Daylight Saving Time)
Zip code: 56342

Airport Operations

Airport use: Private use. Permission required prior to landing
Activation date: 07/1956
Control tower: no
ARTCC: MINNEAPOLIS CENTER
FSS: PRINCETON FLIGHT SERVICE STATION
Attendance: UNATNDD
Wind indicator: yes
Segmented circle: no

Airport Communications

CTAF: 122.9
WX AWOS-3 at JMR (18 nm SE): 123.925 (320-679-1629)

Nearby radio navigation aids

NDB name  Hdg/Dist  Freq  Var  ID
MORA334/18.032700WJMR .--- -- .-.
AITKIN159/24.939700EAIT .- .. -
MOOSE LAKE238/31.336202EMZH -- --.. ....
RUSH CITY321/34.928202EROS .-. --- ...
PRINCETON007/36.236803EPNM .--. -. --
RIPLEY080/37.040403EXCR -..- -.-. .-.
CAMBRIDGE346/37.135001ECBG -.-. -... --.
LITTLE FALLS068/38.735903ELXL .-.. -..- .-..

Airport Services

Parking: tiedowns
Airframe service: NONE
Powerplant service: NONE
Bottled oxygen: NONE
Bulk oxygen: NONE

Runway Information

Runway 16/34

Dimensions: 2460 x 160 ft. / 750 x 49 m
Surface: turf, in fair condition
RUNWAY 16  RUNWAY 34
Traffic pattern: leftleft
Markings: nonenone
Runway end identifier lights: nono
Obstructions: 25 ft. trees, 50 ft. from runway, 130 ft. left of centerline, 2:1 slope to clear65 ft. trees, 800 ft. from runway, 225 ft. left of centerline, 10:1 slope to clear

Airport Ownership and Management from official FAA records

Ownership: Privately-owned
Owner: ISLE FLYING CLUB, INC.
HC69 BOX 239
ISLE, MN 56342
Manager: DAVE RETKA
ISLE, MN 56342
Phone 651-263-8614
ALSO: PAT MOENKHAUS 320-676-1910

Airport Operational Statistics

Aircraft based on the field: 8
Single engine airplanes: 8
    
Aircraft operations: avg 50/month *
83% local general aviation
17% transient general aviation
* for 12-month period ending 30 June 2016

Additional Remarks

FLYING CLUB MEMBERSHIP OR PERMISSION FROM A FLYING CLUB MEMBER IS REQUIRED TO LAND AT THE ISLE PRIVATE AIRPORT.

Instrument Procedures

There are no published instrument procedures at MY72.

Some nearby airports with instrument procedures:

KJMR - Mora Municipal Airport (18 nm SE)
04W - Field of Dreams Airport (25 nm E)
KAIT - Aitkin Municipal Airport-Steve Kurtz Field (25 nm N)
KHZX - Isedor Iverson Airport (28 nm N)
KMZH - Moose Lake Carlton County Airport (31 nm NE)
 
Loc | Ops | Rwys | IFR | FBO | Links
Com | Nav | Svcs | Stats | Notes


 
Area around MY72 (Isle Private Airport)
 
Road maps at: MapQuest Bing Google
 
Aerial photo
WARNING: Photo may not be current or correct
Aerial photo of MY72 (Isle Private Airport)
Photo by Dan Johnson
Photo taken 07-Nov-2018
looking northeast.

Do you have a better or more recent aerial photo of Isle Private Airport that you would like to share? If so, please send us your photo.

 
Sectional chart

 
Airport distance calculator
Flying to Isle Private Airport? Find the distance to fly.

From to MY72

Sunrise and sunset
Times for 10-Dec-2018
 Local
(UTC-6)
 Zulu
(UTC)
Morning civil twilight07:1213:12
Sunrise07:4613:46
Sunset16:2722:27
Evening civil twilight17:0123:01

Current date and time
Zulu (UTC)  10-Dec-2018 18:58:10
Local (UTC-6)  10-Dec-2018 12:58:10
 
METAR
KJMR 
18nm SE 
101856Z AUTO 22007KT 4SM BR OVC008 M05/M06 A3005 RMK AO2
KAIT 
24nm N 
101855Z AUTO 21007KT 10SM CLR M02/M08 A2995 RMK AO2
K04W 
25nm E 
101835Z AUTO 20007KT 3SM BR OVC005 M05/M06 A3005 RMK AO2
KHZX 
28nm N 
101855Z AUTO 22008KT 10SM CLR M01/M07 A2996 RMK AO2
KBRD 
31nm NW 
101853Z AUTO 20009KT 6SM HZ CLR M01/M08 A2996 RMK AO2 SLP169 T10111078
KMZH 
31nm NE 
101835Z AUTO 20008KT 7SM CLR M04/M07 A2998 RMK AO2
KROS 
35nm SE 
101856Z AUTO 19007KT 7SM OVC007 M05/M06 A3004 RMK AO2 T10551063
KCBG 
36nm S 
101855Z AUTO 19008KT 7SM OVC007 M04/M09 A3005 RMK AO2
TAF
KBRD 
31nm NW 
101720Z 1018/1118 22008KT 5SM HZ SKC FM110100 VRB03KT P6SM FEW250 FM111000 VRB03KT 6SM BR FEW250 FM111600 VRB03KT P6SM SCT140
NOTAMs
Click for the latest NOTAMs
NOTAMs are issued by the DoD/FAA and will open in a separate window not controlled by AirNav.

 

 
 

Would you like to see your business listed on this page?

 If your business provides an interesting product or service to pilots, flight crews, aircraft, or users of the Isle Private Airport, you should consider listing it here.  To start the listing process, click on the button below
 
Add a business
 

Other Pages about Isle Private Airport

Update a link
 
Copyright © AirNav, LLC. All rights reserved. Privacy Policy  Contact